Time;durP1;ratioP1;P1;durP2;ratioP2;P2;SDS_P1;SDS_P2;PMS_P1;PMS_P2;Temp;Humidity;BMP_temperature;BMP_pressure;BME280_temperature;BME280_humidity;BME280_pressure;Samples;Min_cycle;Max_cycle;Signal;HPM_P1;HPM_P2
2022/01/22 00:01:46;;;;;;;28.80;25.80;;;-6.10;97.20;-6.70;96774.00;;;;5014571;28;87508;-61
2022/01/22 00:04:13;;;;;;;28.23;25.23;;;-6.10;97.60;-6.70;96779.00;;;;5029187;28;89016;-62
2022/01/22 00:06:39;;;;;;;28.88;25.63;;;-6.10;97.30;-6.70;96771.00;;;;5027965;27;86891;-62
2022/01/22 00:09:06;;;;;;;29.15;25.50;;;-6.10;97.20;-6.70;96784.00;;;;5019882;28;87718;-61
2022/01/22 00:11:39;;;;;;;30.30;25.90;;;-6.00;97.20;-6.70;96786.00;;;;5020716;28;87450;-62
2022/01/22 00:14:24;;;;;;;28.55;24.55;;;-6.00;97.20;-6.70;96783.00;;;;5024081;28;86992;-62
2022/01/22 00:17:00;;;;;;;27.75;24.88;;;-6.00;97.20;-6.70;96785.00;;;;5020865;28;87145;-62
2022/01/22 00:19:26;;;;;;;28.35;25.35;;;-6.00;97.10;-6.70;96786.00;;;;5019282;28;87531;-61
2022/01/22 00:21:54;;;;;;;27.70;24.67;;;-6.00;97.20;-6.70;96782.00;;;;5021314;28;87701;-62
2022/01/22 00:24:20;;;;;;;27.35;24.50;;;-6.00;97.00;-6.70;96783.00;;;;5020568;28;87030;-62
2022/01/22 00:26:47;;;;;;;28.50;25.38;;;-6.00;97.10;-6.70;96783.00;;;;5020307;28;87974;-62
2022/01/22 00:29:15;;;;;;;27.63;24.70;;;-6.00;97.20;-6.70;96784.00;;;;5019521;28;88596;-62
2022/01/22 00:31:44;;;;;;;26.63;23.60;;;-6.00;97.10;-6.60;96790.00;;;;5018914;28;87116;-62
2022/01/22 00:34:10;;;;;;;26.52;23.73;;;-6.00;97.10;-6.60;96788.00;;;;5020640;28;86939;-62
2022/01/22 00:36:38;;;;;;;27.30;24.40;;;-5.90;97.20;-6.60;96793.00;;;;5019914;28;86984;-62
2022/01/22 00:39:04;;;;;;;27.15;24.20;;;-6.00;97.00;-6.60;96800.00;;;;5007625;28;87720;-61
2022/01/22 00:41:31;;;;;;;26.45;23.70;;;-5.90;97.20;-6.60;96791.00;;;;5020271;27;88025;-62
2022/01/22 00:43:57;;;;;;;27.35;24.52;;;-6.00;97.00;-6.70;96787.00;;;;5019172;28;86967;-62
2022/01/22 00:46:23;;;;;;;27.08;24.15;;;-6.00;97.10;-6.60;96792.00;;;;5020814;28;86768;-61
2022/01/22 00:48:50;;;;;;;28.40;25.33;;;-5.90;97.20;-6.60;96790.00;;;;5022843;28;87713;-62
2022/01/22 00:51:16;;;;;;;25.88;23.20;;;-5.90;97.10;-6.60;96798.00;;;;5018186;28;87470;-62
2022/01/22 00:53:42;;;;;;;24.85;22.45;;;-5.90;97.10;-6.70;96802.00;;;;5016517;28;88134;-62
2022/01/22 00:56:08;;;;;;;26.42;23.63;;;-6.00;97.10;-6.70;96801.00;;;;5019182;28;87134;-62
2022/01/22 00:58:35;;;;;;;27.35;24.50;;;-6.00;97.10;-6.70;96805.00;;;;5018667;28;88660;-62
2022/01/22 01:01:02;;;;;;;27.02;24.23;;;-6.00;97.20;-6.70;96813.00;;;;5018883;28;87339;-61
2022/01/22 01:03:32;;;;;;;24.75;22.15;;;-6.00;97.20;-6.70;96820.00;;;;5018656;28;87021;-61
2022/01/22 01:05:59;;;;;;;26.48;23.77;;;-6.00;97.10;-6.70;96826.00;;;;5025047;28;87337;-61
2022/01/22 01:08:27;;;;;;;23.92;21.42;;;-6.00;97.20;-6.70;96817.00;;;;5018837;28;88489;-61
2022/01/22 01:10:54;;;;;;;25.10;22.42;;;-6.00;97.10;-6.70;96823.00;;;;5018641;28;87639;-61
2022/01/22 01:13:21;;;;;;;24.30;21.95;;;-6.00;97.20;-6.70;96824.00;;;;5035681;28;86947;-61
2022/01/22 01:35:29;;;;;;;23.10;20.67;;;-6.00;97.10;-6.60;96810.00;;;;4996187;28;87016;-61
2022/01/22 01:37:57;;;;;;;23.50;21.10;;;-6.00;97.20;-6.70;96822.00;;;;5019655;28;86562;-61
2022/01/22 01:40:26;;;;;;;23.17;20.73;;;-5.90;97.20;-6.60;96825.00;;;;5017922;28;87696;-61
2022/01/22 01:45:27;;;;;;;23.52;21.02;;;-5.90;97.20;-6.60;96830.00;;;;5008652;28;87926;-61
2022/01/22 01:48:02;;;;;;;22.98;20.67;;;-5.90;97.10;-6.60;96818.00;;;;5018315;28;87336;-61
2022/01/22 01:50:34;;;;;;;21.98;19.92;;;-5.90;97.20;-6.60;96825.00;;;;5019775;28;88913;-61
2022/01/22 01:55:46;;;;;;;22.08;19.88;;;-5.90;97.10;-6.60;96815.00;;;;5017650;28;87025;-61
2022/01/22 01:58:18;;;;;;;21.42;19.33;;;-5.90;97.20;-6.60;96825.00;;;;5035490;28;87008;-61
2022/01/22 02:00:47;;;;;;;21.27;19.08;;;-5.90;97.20;-6.60;96837.00;;;;5016934;28;87957;-61
2022/01/22 02:03:14;;;;;;;23.52;21.15;;;-5.90;97.10;-6.60;96835.00;;;;5018993;28;86673;-61
2022/01/22 02:05:46;;;;;;;21.60;19.42;;;-5.90;97.20;-6.60;96841.00;;;;5021207;28;87026;-61
2022/01/22 02:08:13;;;;;;;22.10;19.95;;;-5.90;97.20;-6.60;96835.00;;;;5030251;28;87862;-62
2022/01/22 02:10:56;;;;;;;22.48;20.27;;;-5.90;97.20;-6.60;96843.00;;;;5032495;28;88611;-61
2022/01/22 02:25:18;;;;;;;21.90;19.60;;;-5.80;97.30;-6.50;96847.00;;;;5025516;28;88398;-61
2022/01/22 02:27:44;;;;;;;19.90;18.00;;;-5.80;97.30;-6.50;96853.00;;;;5023362;28;87052;-61
2022/01/22 02:30:23;;;;;;;21.95;19.65;;;-5.90;97.30;-6.50;96856.00;;;;5021376;28;86539;-61
2022/01/22 02:38:19;;;;;;;21.17;19.08;;;-5.80;97.20;-6.50;96851.00;;;;5020668;28;87848;-61
2022/01/22 02:40:48;;;;;;;20.88;18.77;;;-5.80;97.20;-6.50;96862.00;;;;5020558;28;87007;-61
2022/01/22 02:43:16;;;;;;;21.63;19.33;;;-5.80;97.20;-6.60;96869.00;;;;5025285;28;88474;-61
2022/01/22 02:45:44;;;;;;;21.30;19.20;;;-5.80;97.30;-6.60;96862.00;;;;5021045;28;88401;-61
2022/01/22 02:48:12;;;;;;;20.92;18.83;;;-5.80;97.30;-6.50;96866.00;;;;5020899;28;87081;-61
2022/01/22 02:50:38;;;;;;;21.35;18.85;;;-5.90;97.30;-6.60;96863.00;;;;5020415;28;87090;-61
2022/01/22 02:53:09;;;;;;;19.27;17.35;;;-5.80;97.40;-6.50;96870.00;;;;5020394;28;88193;-61
2022/01/22 02:55:36;;;;;;;22.30;18.77;;;-5.90;97.60;-6.50;96875.00;;;;5003716;28;89460;-61
2022/01/22 02:58:03;;;;;;;19.80;17.80;;;-5.80;97.30;-6.50;96856.00;;;;5019922;28;87437;-61
2022/01/22 03:00:30;;;;;;;21.02;18.55;;;-5.80;97.20;-6.50;96871.00;;;;5019455;28;87085;-61
2022/01/22 03:02:57;;;;;;;20.17;18.13;;;-5.80;97.20;-6.40;96869.00;;;;5020319;28;88966;-61
2022/01/22 03:05:27;;;;;;;21.90;19.23;;;-5.70;97.30;-6.40;96868.00;;;;5010986;28;87478;-61
2022/01/22 03:07:56;;;;;;;20.33;18.33;;;-5.70;97.30;-6.40;96874.00;;;;5020353;28;87039;-61
2022/01/22 03:10:25;;;;;;;20.13;18.02;;;-5.70;97.20;-6.40;96877.00;;;;5021013;28;87629;-61
2022/01/22 03:13:40;;;;;;;19.42;17.25;;;-5.70;97.30;-6.40;96878.00;;;;5021096;28;87403;-61
2022/01/22 03:18:45;;;;;;;24.77;20.08;;;-5.70;97.20;-6.30;96892.00;;;;5013265;28;86853;-61
2022/01/22 03:21:13;;;;;;;21.40;18.73;;;-5.60;97.40;-6.30;96889.00;;;;5051558;27;86842;-61
2022/01/22 03:29:14;;;;;;;21.08;18.83;;;-5.60;97.20;-6.30;96895.00;;;;5004857;28;87978;-61
2022/01/22 03:31:42;;;;;;;20.20;18.23;;;-5.60;97.20;-6.30;96896.00;;;;5020604;28;87018;-61
2022/01/22 03:34:09;;;;;;;19.63;17.63;;;-5.60;97.20;-6.30;96890.00;;;;5019287;28;87801;-61
2022/01/22 03:36:37;;;;;;;19.25;17.25;;;-5.60;97.10;-6.30;96906.00;;;;5021948;28;87292;-61
2022/01/22 03:39:08;;;;;;;21.65;18.25;;;-5.60;97.10;-6.30;96916.00;;;;5018312;28;87292;-61
2022/01/22 03:41:35;;;;;;;21.10;19.00;;;-5.60;97.10;-6.30;96907.00;;;;5018589;28;87617;-61
2022/01/22 03:44:05;;;;;;;21.83;18.60;;;-5.60;97.10;-6.40;96909.00;;;;5019851;28;88970;-61
2022/01/22 03:46:32;;;;;;;21.27;18.17;;;-5.70;97.10;-6.40;96916.00;;;;5036708;27;88022;-61
2022/01/22 03:48:59;;;;;;;20.95;18.25;;;-5.70;97.10;-6.40;96922.00;;;;5035503;28;87900;-61
2022/01/22 03:51:25;;;;;;;19.83;17.75;;;-5.70;97.10;-6.40;96922.00;;;;5019171;28;87180;-61
2022/01/22 03:53:52;;;;;;;24.17;19.05;;;-5.70;97.10;-6.40;96922.00;;;;5017871;28;89286;-61
2022/01/22 03:56:19;;;;;;;23.42;19.77;;;-5.70;97.10;-6.40;96942.00;;;;5017959;28;89372;-61
2022/01/22 03:58:49;;;;;;;21.58;19.25;;;-5.70;97.10;-6.40;96948.00;;;;5018880;28;88079;-61
2022/01/22 04:02:08;;;;;;;21.88;19.55;;;-5.70;97.10;-6.40;96941.00;;;;5009730;28;87431;-62
2022/01/22 04:04:41;;;;;;;22.38;18.33;;;-5.70;97.20;-6.40;96949.00;;;;5052010;27;89742;-60
2022/01/22 04:09:41;;;;;;;22.52;18.92;;;-5.70;97.30;-6.40;96953.00;;;;5011113;28;87657;-61
2022/01/22 04:12:10;;;;;;;20.08;17.98;;;-5.70;97.30;-6.40;96958.00;;;;5031979;28;86267;-61
2022/01/22 04:14:44;;;;;;;21.70;19.20;;;-5.70;97.20;-6.40;96960.00;;;;5023783;28;89638;-62
2022/01/22 04:17:24;;;;;;;21.85;19.58;;;-5.70;97.30;-6.40;96959.00;;;;5020572;28;87414;-62
2022/01/22 04:25:23;;;;;;;20.60;18.35;;;-5.70;97.40;-6.40;96972.00;;;;5018939;28;87767;-61
2022/01/22 04:27:53;;;;;;;20.92;18.17;;;-5.70;97.30;-6.40;96969.00;;;;5019099;28;88026;-61
2022/01/22 04:30:21;;;;;;;20.58;18.30;;;-5.70;97.30;-6.40;96973.00;;;;5021475;28;87237;-61
2022/01/22 04:32:49;;;;;;;21.33;19.02;;;-5.70;97.30;-6.40;96966.00;;;;5017881;28;87247;-62
2022/01/22 04:35:17;;;;;;;20.92;18.83;;;-5.70;97.30;-6.40;96968.00;;;;5018759;28;87667;-61
2022/01/22 04:37:47;;;;;;;21.60;18.95;;;-5.60;97.40;-6.40;96991.00;;;;5018065;28;88635;-61
2022/01/22 04:40:14;;;;;;;21.20;18.88;;;-5.70;97.30;-6.30;96974.00;;;;5019405;28;86944;-62
2022/01/22 04:42:42;;;;;;;22.30;19.15;;;-5.70;97.30;-6.30;96977.00;;;;5018916;28;87305;-61
2022/01/22 04:45:41;;;;;;;22.70;19.45;;;-5.70;97.30;-6.30;96984.00;;;;5018441;28;88602;-62
2022/01/22 04:56:23;;;;;;;22.85;20.42;;;-5.60;97.10;-6.30;96997.00;;;;5016419;28;88600;-62
2022/01/22 04:58:49;;;;;;;20.83;18.63;;;-5.60;97.10;-6.20;97008.00;;;;5017524;28;88585;-61
2022/01/22 05:01:15;;;;;;;22.52;19.20;;;-5.50;97.20;-6.20;97008.00;;;;5018206;28;87421;-61
2022/01/22 05:03:44;;;;;;;23.48;19.67;;;-5.50;97.20;-6.20;97006.00;;;;5018577;28;86907;-61
2022/01/22 05:06:40;;;;;;;25.80;20.60;;;-5.50;97.20;-6.20;97020.00;;;;5018551;28;88171;-61
2022/01/22 05:09:27;;;;;;;25.52;20.45;;;-5.50;97.20;-6.20;97021.00;;;;5017920;28;88310;-61
2022/01/22 05:11:57;;;;;;;23.20;20.80;;;-5.50;97.20;-6.20;97024.00;;;;5031639;28;88365;-62
2022/01/22 05:14:24;;;;;;;25.60;21.10;;;-5.50;97.20;-6.10;97024.00;;;;4995237;28;87025;-62
2022/01/22 05:16:51;;;;;;;23.23;20.17;;;-5.50;97.20;-6.10;97040.00;;;;5049646;27;88727;-62
2022/01/22 05:19:28;;;;;;;22.27;19.90;;;-5.50;97.20;-6.10;97037.00;;;;5017784;28;87524;-62
2022/01/22 05:22:01;;;;;;;23.85;21.25;;;-5.40;97.20;-6.10;97040.00;;;;5018047;28;87578;-62
2022/01/22 05:24:31;;;;;;;23.60;21.08;;;-5.40;97.20;-6.10;97046.00;;;;5017691;28;87084;-62
2022/01/22 05:38:19;;;;;;;23.98;21.38;;;-5.40;97.30;-6.10;97065.00;;;;5017244;28;88737;-62
2022/01/22 05:40:45;;;;;;;23.35;21.02;;;-5.40;97.30;-6.10;97062.00;;;;5020578;28;88281;-62
2022/01/22 05:43:11;;;;;;;24.17;21.27;;;-5.40;97.30;-6.00;97071.00;;;;5022459;28;86956;-62
2022/01/22 05:45:37;;;;;;;26.05;21.80;;;-5.40;97.30;-6.00;97080.00;;;;5021071;28;87003;-62
2022/01/22 05:48:04;;;;;;;23.80;21.00;;;-5.40;97.30;-6.00;97084.00;;;;5022099;28;87376;-62
2022/01/22 05:50:44;;;;;;;24.38;21.70;;;-5.40;97.30;-6.00;97079.00;;;;5021941;28;88504;-62
2022/01/22 06:01:15;;;;;;;25.17;21.98;;;-5.30;97.30;-6.00;97092.00;;;;5035025;28;87368;-62
2022/01/22 06:03:55;;;;;;;24.42;21.77;;;-5.30;97.30;-5.90;97096.00;;;;5019166;28;88121;-62
2022/01/22 06:06:22;;;;;;;25.52;22.83;;;-5.30;97.30;-5.90;97094.00;;;;5018173;28;87368;-62
2022/01/22 06:08:53;;;;;;;25.42;21.70;;;-5.20;97.40;-5.90;97105.00;;;;5018972;28;88796;-62
2022/01/22 06:11:24;;;;;;;24.77;22.17;;;-5.20;97.30;-5.90;97105.00;;;;5019605;28;88686;-62
2022/01/22 06:13:52;;;;;;;27.05;22.77;;;-5.20;97.40;-5.80;97117.00;;;;5020250;28;87117;-62
2022/01/22 06:16:28;;;;;;;26.77;23.00;;;-5.20;97.30;-5.90;97109.00;;;;5014243;28;87382;-62
2022/01/22 06:19:25;;;;;;;26.20;23.17;;;-5.20;97.30;-5.80;97120.00;;;;5020074;28;88570;-62
2022/01/22 06:21:51;;;;;;;25.25;22.40;;;-5.20;97.30;-5.80;97128.00;;;;5020666;28;87303;-62
2022/01/22 06:24:22;;;;;;;25.42;22.73;;;-5.10;97.30;-5.80;97125.00;;;;5020456;28;87126;-62
2022/01/22 06:26:52;;;;;;;24.83;21.55;;;-5.10;97.30;-5.80;97137.00;;;;5030969;28;87437;-62
2022/01/22 06:29:19;;;;;;;30.23;23.75;;;-5.10;97.30;-5.70;97133.00;;;;5002664;28;88637;-62
2022/01/22 06:31:45;;;;;;;27.63;23.30;;;-5.10;97.30;-5.70;97130.00;;;;5019332;28;90981;-62
2022/01/22 06:34:12;;;;;;;26.67;23.25;;;-5.10;97.20;-5.70;97135.00;;;;5019579;28;87286;-62
2022/01/22 06:36:40;;;;;;;24.17;21.77;;;-5.10;97.30;-5.70;97137.00;;;;5019595;28;87411;-62
2022/01/22 06:39:18;;;;;;;25.20;22.50;;;-5.00;97.40;-5.70;97135.00;;;;5019285;28;88534;-62
2022/01/22 06:42:03;;;;;;;25.98;23.30;;;-5.00;97.40;-5.60;97138.00;;;;5020997;28;87515;-61
2022/01/22 06:44:55;;;;;;;25.30;22.70;;;-5.00;97.30;-5.60;97140.00;;;;5019880;28;87374;-62
2022/01/22 06:47:47;;;;;;;26.15;23.35;;;-5.00;97.30;-5.60;97151.00;;;;5017455;28;86556;-61
2022/01/22 06:50:23;;;;;;;24.45;21.95;;;-5.00;97.20;-5.50;97155.00;;;;5018839;28;88738;-62
2022/01/22 06:52:56;;;;;;;27.52;23.05;;;-4.90;97.30;-5.50;97151.00;;;;5020159;28;87972;-62
2022/01/22 06:55:39;;;;;;;24.05;21.50;;;-4.80;97.20;-5.40;97160.00;;;;5015810;28;88522;-62
2022/01/22 06:58:07;;;;;;;25.13;22.60;;;-4.80;97.00;-5.40;97153.00;;;;5019748;28;87054;-62
2022/01/22 07:00:34;;;;;;;24.40;21.83;;;-4.80;97.40;-5.40;97160.00;;;;5035984;28;87852;-61
2022/01/22 07:03:21;;;;;;;25.02;22.52;;;-4.70;97.00;-5.30;97176.00;;;;5019897;28;88335;-61
2022/01/22 07:05:55;;;;;;;25.17;22.52;;;-4.70;96.80;-5.30;97171.00;;;;5017613;28;87018;-60
2022/01/22 07:08:26;;;;;;;25.33;22.63;;;-4.70;96.80;-5.30;97178.00;;;;5021482;28;87741;-61
2022/01/22 07:10:58;;;;;;;;;;;-4.70;96.90;-5.20;97177.00;;;;5033334;28;87726;-58
2022/01/22 07:13:25;;;;;;;25.20;22.58;;;-4.60;96.80;-5.20;97185.00;;;;5037531;28;87517;-58
2022/01/22 07:15:51;;;;;;;25.98;23.17;;;-4.50;96.80;-5.20;97186.00;;;;5036837;28;87473;-61
2022/01/22 07:18:21;;;;;;;23.95;21.45;;;-4.60;96.80;-5.20;97197.00;;;;5035987;28;87165;-58
2022/01/22 07:20:50;;;;;;;25.08;22.35;;;-4.60;96.90;-5.20;97206.00;;;;5018754;28;88994;-61
2022/01/22 07:23:42;;;;;;;25.88;22.65;;;-4.60;96.90;-5.20;97209.00;;;;5019960;28;89432;-61
2022/01/22 07:26:08;;;;;;;24.17;21.60;;;-4.60;96.80;-5.20;97218.00;;;;5009777;28;87177;-62
2022/01/22 07:28:46;;;;;;;23.52;21.08;;;-4.50;96.80;-5.10;97221.00;;;;5019005;28;87408;-61
2022/01/22 07:31:13;;;;;;;24.27;21.73;;;-4.50;96.60;-5.10;97226.00;;;;5019532;28;89425;-61
2022/01/22 07:33:41;;;;;;;23.65;21.25;;;-4.50;96.50;-5.10;97232.00;;;;5018777;28;88523;-61
2022/01/22 07:36:08;;;;;;;24.52;22.10;;;-4.50;96.50;-5.10;97245.00;;;;5018795;28;87239;-58
2022/01/22 07:38:38;;;;;;;27.33;24.45;;;-4.50;96.50;-5.20;97260.00;;;;5002870;28;86549;-61
2022/01/22 07:41:07;;;;;;;25.58;22.88;;;-4.50;96.60;-5.10;97264.00;;;;5016267;28;87536;-62
2022/01/22 07:43:37;;;;;;;26.52;23.73;;;-4.50;96.90;-5.10;97256.00;;;;5034751;28;88400;-62
2022/01/22 07:46:22;;;;;;;30.63;25.38;;;-4.50;96.80;-5.00;97260.00;;;;5019225;28;87981;-62
2022/01/22 07:48:56;;;;;;;26.73;24.02;;;-4.40;96.90;-5.10;97260.00;;;;5018493;28;87144;-62
2022/01/22 07:51:22;;;;;;;26.20;23.33;;;-4.40;96.60;-5.10;97277.00;;;;5019960;28;88335;-62
2022/01/22 07:53:50;;;;;;;25.60;23.15;;;-4.50;96.80;-5.00;97289.00;;;;5018566;28;88527;-62
2022/01/22 07:56:20;;;;;;;29.05;24.10;;;-4.40;96.90;-5.00;97271.00;;;;5018296;28;87304;-62
2022/01/22 07:58:46;;;;;;;26.30;23.63;;;-4.30;96.60;-5.00;97278.00;;;;5019493;28;87511;-60
2022/01/22 08:01:13;;;;;;;26.85;24.13;;;-4.30;96.70;-5.00;97273.00;;;;5025757;28;88623;-62
2022/01/22 08:04:00;;;;;;;26.77;23.85;;;-4.30;96.70;-4.90;97287.00;;;;4997201;28;87821;-63
2022/01/22 08:06:45;;;;;;;27.60;24.73;;;-4.30;96.60;-4.90;97290.00;;;;5020006;28;87272;-56
2022/01/22 08:09:30;;;;;;;26.77;24.10;;;-4.30;96.60;-4.90;97296.00;;;;5020465;28;86920;-59
2022/01/22 08:12:07;;;;;;;27.05;24.15;;;-4.20;96.60;-4.90;97294.00;;;;5028371;28;90936;-63
2022/01/22 08:14:34;;;;;;;26.23;23.45;;;-4.20;96.60;-4.90;97300.00;;;;5002147;28;89199;-63
2022/01/22 08:17:00;;;;;;;25.48;23.05;;;-4.30;96.60;-4.90;97299.00;;;;5018493;28;86990;-61
2022/01/22 08:19:34;;;;;;;26.33;23.52;;;-4.20;96.60;-4.80;97307.00;;;;5018776;28;87514;-62
2022/01/22 08:22:02;;;;;;;27.08;24.33;;;-4.20;96.60;-4.80;97304.00;;;;5018373;28;88598;-61
2022/01/22 08:24:47;;;;;;;27.80;24.80;;;-4.10;96.60;-4.70;97309.00;;;;5019756;28;87516;-62
2022/01/22 08:29:41;;;;;;;27.20;23.52;;;-4.00;96.30;-4.50;97317.00;;;;5018712;28;86363;-61
2022/01/22 08:32:23;;;;;;;26.33;23.52;;;-3.80;96.30;-4.40;97316.00;;;;5017694;28;88583;-62
2022/01/22 08:37:35;;;;;;;25.83;23.23;;;-3.70;95.80;-4.30;97311.00;;;;5017336;28;87901;-61
2022/01/22 08:40:04;;;;;;;25.08;22.50;;;-3.60;95.60;-4.20;97326.00;;;;5017569;28;87433;-61
2022/01/22 08:42:30;;;;;;;26.65;23.95;;;-3.60;95.60;-4.20;97324.00;;;;5019140;28;88036;-63
2022/01/22 08:44:57;;;;;;;27.52;24.60;;;-3.60;95.40;-4.30;97316.00;;;;5001203;28;88394;-61
2022/01/22 08:47:24;;;;;;;26.75;24.00;;;-3.60;95.40;-4.20;97329.00;;;;5015625;28;87136;-62
2022/01/22 08:49:51;;;;;;;26.50;23.77;;;-3.60;95.70;-4.20;97332.00;;;;5018427;28;87261;-62
2022/01/22 08:52:22;;;;;;;27.85;25.02;;;-3.60;95.60;-4.20;97337.00;;;;5017734;28;88853;-62
2022/01/22 08:54:48;;;;;;;29.35;25.50;;;-3.60;95.40;-4.20;97350.00;;;;5017508;28;88736;-62
2022/01/22 08:57:18;;;;;;;28.10;24.63;;;-3.60;95.50;-4.20;97346.00;;;;5018130;28;87119;-61
2022/01/22 09:00:06;;;;;;;28.40;25.42;;;-3.60;95.50;-4.20;97344.00;;;;5017281;28;87852;-61
2022/01/22 09:02:39;;;;;;;29.52;25.83;;;-3.50;95.60;-4.20;97358.00;;;;5002491;28;91073;-61
2022/01/22 09:05:37;;;;;;;29.20;26.15;;;-3.50;95.40;-4.20;97357.00;;;;4994518;28;88590;-61
2022/01/22 09:08:24;;;;;;;28.90;26.00;;;-3.50;95.40;-4.10;97346.00;;;;5018774;28;87126;-61
2022/01/22 09:11:06;;;;;;;28.38;25.58;;;-3.50;95.40;-4.20;97374.00;;;;5018775;28;86986;-63
2022/01/22 09:14:11;;;;;;;32.55;25.60;;;-3.60;95.40;-4.10;97362.00;;;;4993780;28;88292;-62
2022/01/22 09:16:48;;;;;;;28.83;25.85;;;-3.50;95.40;-4.20;97364.00;;;;5020284;28;87471;-62
2022/01/22 09:19:15;;;;;;;28.15;25.05;;;-3.50;95.40;-4.20;97375.00;;;;5020964;28;87278;-62
2022/01/22 09:21:46;;;;;;;30.02;26.38;;;-3.50;95.50;-4.10;97380.00;;;;5038080;27;86317;-62
2022/01/22 09:24:17;;;;;;;28.05;25.05;;;-3.50;95.50;-4.10;97389.00;;;;5010295;28;87942;-62
2022/01/22 09:26:48;;;;;;;28.83;24.67;;;-3.50;95.40;-4.00;97406.00;;;;5020837;28;88645;-62
2022/01/22 09:29:17;;;;;;;29.67;26.13;;;-3.40;95.40;-4.10;97391.00;;;;5020300;28;88268;-62
2022/01/22 09:31:44;;;;;;;28.80;25.90;;;-3.50;95.30;-4.20;97406.00;;;;5020551;28;87339;-62
2022/01/22 09:34:16;;;;;;;28.58;25.52;;;-3.60;95.30;-4.20;97406.00;;;;5017898;28;87775;-61
2022/01/22 09:37:03;;;;;;;29.35;26.25;;;-3.60;95.50;-4.30;97401.00;;;;5021564;27;87405;-61
2022/01/22 09:39:58;;;;;;;30.45;24.75;;;-3.70;95.50;-4.30;97402.00;;;;5011062;28;87292;-61
2022/01/22 09:42:43;;;;;;;27.27;24.30;;;-3.60;95.60;-4.20;97403.00;;;;5017887;28;87272;-61
2022/01/22 09:45:29;;;;;;;27.63;24.73;;;-3.60;95.70;-4.20;97410.00;;;;5022168;28;87674;-62
2022/01/22 09:48:25;;;;;;;28.23;25.30;;;-3.60;95.60;-4.10;97408.00;;;;4995332;27;87320;-62
2022/01/22 09:51:21;;;;;;;28.90;25.60;;;-3.50;95.50;-4.20;97408.00;;;;5010687;28;87449;-63
2022/01/22 09:54:13;;;;;;;28.27;25.30;;;-3.60;95.40;-4.30;97416.00;;;;5019853;28;87039;-63
2022/01/22 09:57:13;;;;;;;31.08;25.65;;;-3.70;95.60;-4.30;97405.00;;;;5012414;28;89168;-64
2022/01/22 10:00:11;;;;;;;29.38;25.95;;;-3.70;95.70;-4.30;97413.00;;;;5000603;28;89538;-63
2022/01/22 10:02:45;;;;;;;29.95;26.88;;;-3.70;95.80;-4.30;97418.00;;;;5006552;28;87058;-64
2022/01/22 10:05:38;;;;;;;31.90;28.27;;;-3.70;95.80;-4.30;97419.00;;;;5020464;28;87049;-64
2022/01/22 10:08:34;;;;;;;31.52;28.23;;;-3.70;95.90;-4.20;97441.00;;;;5018122;28;87476;-63
2022/01/22 10:11:39;;;;;;;30.63;27.27;;;-3.60;95.90;-4.20;97426.00;;;;5003235;28;87242;-63
2022/01/22 10:14:14;;;;;;;29.00;26.02;;;-3.60;95.80;-4.20;97422.00;;;;5026467;28;87062;-63
2022/01/22 10:16:41;;;;;;;29.80;26.52;;;-3.50;95.80;-4.10;97420.00;;;;5021780;27;86724;-63
2022/01/22 10:19:16;;;;;;;29.30;26.30;;;-3.50;95.80;-4.10;97419.00;;;;5019861;28;87725;-62
2022/01/22 10:21:57;;;;;;;29.35;26.40;;;-3.50;95.70;-4.10;97425.00;;;;5021631;28;87272;-62
2022/01/22 10:24:41;;;;;;;30.58;27.45;;;-3.50;95.70;-4.10;97434.00;;;;5016657;28;88309;-64
2022/01/22 10:27:35;;;;;;;27.55;24.77;;;-3.50;95.60;-4.00;97434.00;;;;5020949;28;86898;-64
2022/01/22 10:30:14;;;;;;;27.63;24.15;;;-3.40;95.70;-4.00;97444.00;;;;5020820;28;88718;-63
2022/01/22 10:35:29;;;;;;;29.20;26.20;;;-3.30;95.50;-3.90;97453.00;;;;5017566;28;86991;-63
2022/01/22 10:38:18;;;;;;;27.20;24.45;;;-3.20;95.60;-3.90;97442.00;;;;5017596;28;87441;-63
2022/01/22 10:40:46;;;;;;;27.60;24.73;;;-3.20;95.40;-3.90;97460.00;;;;5020534;28;87609;-63
2022/01/22 10:43:32;;;;;;;28.65;25.60;;;-3.20;95.40;-3.90;97460.00;;;;5021173;28;87475;-64
2022/01/22 10:46:20;;;;;;;30.05;26.90;;;-3.20;95.40;-3.90;97458.00;;;;5020717;28;87475;-63
2022/01/22 10:49:15;;;;;;;29.77;26.63;;;-3.20;95.60;-3.90;97456.00;;;;5020763;28;87186;-63
2022/01/22 10:52:10;;;;;;;29.67;26.50;;;-3.30;95.50;-3.90;97466.00;;;;5027530;28;88697;-63
2022/01/22 10:54:38;;;;;;;29.02;26.08;;;-3.30;95.50;-3.90;97462.00;;;;5019357;28;89764;-63
2022/01/22 10:57:20;;;;;;;28.08;25.15;;;-3.30;95.50;-3.80;97467.00;;;;5019616;28;86999;-63
2022/01/22 10:59:47;;;;;;;30.75;25.98;;;-3.20;95.60;-3.70;97472.00;;;;5016657;28;87511;-63
2022/01/22 11:02:17;;;;;;;30.02;26.95;;;-3.10;95.60;-3.70;97474.00;;;;5019965;28;87925;-63
2022/01/22 11:04:45;;;;;;;32.10;26.83;;;-3.10;95.40;-3.70;97487.00;;;;5019344;28;87705;-63
2022/01/22 11:07:19;;;;;;;29.33;26.20;;;-3.10;95.30;-3.70;97489.00;;;;5023299;28;87426;-63
2022/01/22 11:09:46;;;;;;;28.92;25.92;;;-3.10;95.30;-3.70;97497.00;;;;5021615;27;86289;-62
2022/01/22 11:12:14;;;;;;;31.02;27.92;;;-3.20;95.40;-3.80;97487.00;;;;5020272;28;88624;-63
2022/01/22 11:14:41;;;;;;;29.98;26.98;;;-3.20;95.60;-3.80;97492.00;;;;5019903;28;87523;-63
2022/01/22 11:17:08;;;;;;;32.40;29.05;;;-3.20;95.60;-3.80;97498.00;;;;5017916;28;87981;-63
2022/01/22 11:19:38;;;;;;;32.58;29.08;;;-3.20;95.60;-3.80;97490.00;;;;5019259;28;87414;-62
2022/01/22 11:22:11;;;;;;;37.25;33.35;;;-3.20;95.70;-3.70;97505.00;;;;5019088;28;87816;-62
2022/01/22 11:24:49;;;;;;;38.13;32.92;;;-3.10;95.60;-3.70;97511.00;;;;5020215;28;88062;-63
2022/01/22 11:27:21;;;;;;;35.42;31.60;;;-3.10;95.60;-3.70;97518.00;;;;5021859;27;87148;-63
2022/01/22 11:30:16;;;;;;;41.75;35.50;;;-3.20;95.60;-3.70;97530.00;;;;5019430;28;87104;-63
2022/01/22 11:32:52;;;;;;;40.17;36.00;;;-3.20;95.60;-3.80;97525.00;;;;5019431;28;87787;-63
2022/01/22 11:35:59;;;;;;;39.95;35.10;;;-3.20;95.60;-3.80;97533.00;;;;5015487;28;87501;-62
2022/01/22 11:38:37;;;;;;;39.63;35.53;;;-3.20;95.60;-3.80;97540.00;;;;4996188;28;87261;-62
2022/01/22 11:41:19;;;;;;;38.00;34.03;;;-3.10;95.70;-3.60;97524.00;;;;4993824;28;87559;-62
2022/01/22 11:44:07;;;;;;;37.53;33.50;;;-3.00;95.60;-3.60;97552.00;;;;5010805;27;89402;-62
2022/01/22 11:46:37;;;;;;;38.25;34.30;;;-3.00;95.20;-3.60;97557.00;;;;5018547;28;88557;-63
2022/01/22 11:49:21;;;;;;;38.72;34.47;;;-3.00;95.10;-3.60;97556.00;;;;5003552;28;87207;-63
2022/01/22 11:52:11;;;;;;;41.03;35.72;;;-3.00;95.30;-3.60;97560.00;;;;5019633;28;87011;-62
2022/01/22 11:55:01;;;;;;;41.03;36.53;;;-3.00;95.20;-3.70;97564.00;;;;5015409;28;89120;-62
2022/01/22 11:57:32;;;;;;;40.28;36.00;;;-3.10;95.30;-3.70;97573.00;;;;5015261;28;88721;-63
2022/01/22 12:00:29;;;;;;;43.15;37.38;;;-3.10;95.20;-3.70;97570.00;;;;5018858;28;87066;-63
2022/01/22 12:03:03;;;;;;;42.05;37.63;;;-3.10;95.30;-3.70;97581.00;;;;5001374;28;86518;-62
2022/01/22 12:05:30;;;;;;;39.38;35.17;;;-3.00;95.40;-3.70;97580.00;;;;5019242;28;88027;-63
2022/01/22 12:07:59;;;;;;;40.00;34.03;;;-3.10;95.20;-3.70;97585.00;;;;5017843;28;87639;-63
2022/01/22 12:10:40;;;;;;;39.28;34.05;;;-3.10;95.30;-3.70;97586.00;;;;5024468;28;87945;-63
2022/01/22 12:16:39;;;;;;;39.95;35.65;;;-3.10;95.30;-3.70;97606.00;;;;5014511;28;87750;-63
2022/01/22 12:19:49;;;;;;;45.40;35.35;;;-3.20;95.40;-3.70;97608.00;;;;5011724;28;87408;-62
2022/01/22 12:22:39;;;;;;;36.45;32.55;;;-3.20;95.80;-3.80;97626.00;;;;5014926;28;86868;-63
2022/01/22 12:25:14;;;;;;;38.30;34.25;;;-3.20;95.60;-3.90;97637.00;;;;5019710;28;87422;-62
2022/01/22 12:27:50;;;;;;;36.55;32.53;;;-3.30;95.90;-3.90;97636.00;;;;5018598;28;87215;-62
2022/01/22 12:30:38;;;;;;;34.88;31.17;;;-3.30;95.90;-3.90;97624.00;;;;5019243;28;87544;-63
2022/01/22 12:33:12;;;;;;;33.70;30.17;;;-3.30;95.90;-4.00;97632.00;;;;5014720;28;87417;-63
2022/01/22 12:35:47;;;;;;;35.05;31.27;;;-3.40;95.90;-4.00;97635.00;;;;5019883;28;86999;-63
2022/01/22 12:38:26;;;;;;;35.45;30.38;;;-3.40;96.10;-4.00;97636.00;;;;5012420;28;88379;-63
2022/01/22 12:40:59;;;;;;;34.75;31.13;;;-3.40;96.10;-4.00;97644.00;;;;5007503;28;88474;-64
2022/01/22 12:43:34;;;;;;;35.28;31.60;;;-3.40;96.20;-4.00;97653.00;;;;5015953;28;87102;-62
2022/01/22 12:46:04;;;;;;;36.38;31.75;;;-3.50;96.20;-4.00;97650.00;;;;5026604;28;86915;-60
2022/01/22 12:48:38;;;;;;;36.40;32.80;;;-3.50;96.50;-4.10;97657.00;;;;5017980;28;86974;-59